Evgenia — 9HA2618 — position and weather

sailwx.info

Track history (hours):
 
Tides and Currents Weather Stations Pressure Air Temp Water Temp Dewpoint Dewpoint Depression Visibility Wind Speed Wind Dir Waves Ship Positions

Evgenia

Last reported at 2018-Feb-14 10:01 UTC. Time now 2018-Feb-18 01:43 UTC.
Position N 37°08' W 029°25'.

Length 292 m; draft 11.1 m.

Type: Cargo ship. MMSI: 215039000.

Date/timePositionNaut miles runAvg speedWind from/ knotsBaromVisibWave heightAir tempDewpointWater temp
2018-Feb-14 10:01N 37°08' W 029°25'1112.4
2018-Feb-14 09:05N 37°14' W 029°12'112.9
2018-Feb-14 08:59N 37°15' W 029°11'612.7
2018-Feb-14 08:30N 37°18' W 029°05'612.8
2018-Feb-14 08:00N 37°21' W 028°58'612.6
2018-Feb-14 07:30N 37°25' W 028°51'612.7
2018-Feb-14 07:00N 37°28' W 028°44'612.7
2018-Feb-14 06:30N 37°32' W 028°38'612.9
2018-Feb-14 06:00N 37°35' W 028°31'613.0
2018-Feb-14 05:30N 37°38' W 028°24'713.0
2018-Feb-14 05:00N 37°42' W 028°17'612.7
2018-Feb-14 04:31N 37°45' W 028°10'612.7
2018-Feb-14 04:00N 37°49' W 028°03'612.8
2018-Feb-14 03:30N 37°52' W 027°57'612.8
2018-Feb-14 03:00N 37°56' W 027°50'612.8
2018-Feb-14 02:31N 37°59' W 027°43'612.7
2018-Feb-14 02:00N 38°02' W 027°36'612.5
2018-Feb-14 01:30N 38°06' W 027°29'612.5
2018-Feb-14 01:01N 38°09' W 027°23'612.0
2018-Feb-14 00:30N 38°12' W 027°16'611.9
2018-Feb-14 00:00N 38°15' W 027°10'612.1
2018-Feb-13 23:31N 38°19' W 027°03'612.3
2018-Feb-13 23:00N 38°22' W 026°57'612.2
2018-Feb-13 22:30N 38°25' W 026°50'612.5
2018-Feb-13 22:00N 38°29' W 026°43'612.4
2018-Feb-13 21:30N 38°32' W 026°37'612.4
2018-Feb-13 21:00N 38°35' W 026°30'712.7
2018-Feb-13 20:29N 38°39' W 026°23'712.7
2018-Feb-13 19:56N 38°43' W 026°15'  
2018-Feb-09 16:00N 49°54' W 004°60'613.0
2018-Feb-09 15:30N 50°00' W 004°60'7 3.3
2018-Feb-09 13:30N 50°07' W 005°03'0 0.0
2018-Feb-09 10:30N 50°07' W 005°03'0 0.1
2018-Feb-09 10:00N 50°07' W 005°03'0 0.0
2018-Feb-09 08:00N 50°07' W 005°03'0 0.1
2018-Feb-09 07:30N 50°07' W 005°03'0 0.0
2018-Feb-09 06:30N 50°07' W 005°03'0 0.0
2018-Feb-09 05:30N 50°07' W 005°03'0 0.0
2018-Feb-09 04:00N 50°07' W 005°03'0 0.0
2018-Feb-09 03:30N 50°07' W 005°03'0 0.0
2018-Feb-09 03:00N 50°07' W 005°03'0 0.2
2018-Feb-09 02:00N 50°07' W 005°02'0 0.2
2018-Feb-09 01:30N 50°07' W 005°03'0 0.0
2018-Feb-09 01:00N 50°07' W 005°03'0 0.5
2018-Feb-09 00:30N 50°07' W 005°03'1 1.2
2018-Feb-09 00:00N 50°06' W 005°02'6 5.7
2018-Feb-08 23:00N 50°01' W 004°58'4 8.1
2018-Feb-08 22:30N 49°57' W 004°58'7 7.4
2018-Feb-08 21:30N 49°50' W 005°02'24112.0
2018-Feb-08 01:30N 51°34' W 010°45'  
Track history (hours):
 
Tides and Currents Weather Stations Pressure Air Temp Water Temp Dewpoint Dewpoint Depression Visibility Wind Speed Wind Dir Waves Ship Positions

Evgenia

Last reported at 2018-Feb-14 10:01 UTC. Time now 2018-Feb-18 01:43 UTC.
Position N 37°08' W 029°25'.

Length 292 m; draft 11.1 m.

Type: Cargo ship. MMSI: 215039000.

Date/timePositionNaut miles runAvg speedWind from/ knotsBaromVisibWave heightAir tempDewpointWater temp
2018-Feb-14 10:01N 37°08' W 029°25'1112.4
2018-Feb-14 09:05N 37°14' W 029°12'112.9
2018-Feb-14 08:59N 37°15' W 029°11'612.7
2018-Feb-14 08:30N 37°18' W 029°05'612.8
2018-Feb-14 08:00N 37°21' W 028°58'612.6
2018-Feb-14 07:30N 37°25' W 028°51'612.7
2018-Feb-14 07:00N 37°28' W 028°44'612.7
2018-Feb-14 06:30N 37°32' W 028°38'612.9
2018-Feb-14 06:00N 37°35' W 028°31'613.0
2018-Feb-14 05:30N 37°38' W 028°24'713.0
2018-Feb-14 05:00N 37°42' W 028°17'612.7
2018-Feb-14 04:31N 37°45' W 028°10'612.7
2018-Feb-14 04:00N 37°49' W 028°03'612.8
2018-Feb-14 03:30N 37°52' W 027°57'612.8
2018-Feb-14 03:00N 37°56' W 027°50'612.8
2018-Feb-14 02:31N 37°59' W 027°43'612.7
2018-Feb-14 02:00N 38°02' W 027°36'612.5
2018-Feb-14 01:30N 38°06' W 027°29'612.5
2018-Feb-14 01:01N 38°09' W 027°23'612.0
2018-Feb-14 00:30N 38°12' W 027°16'611.9
2018-Feb-14 00:00N 38°15' W 027°10'612.1
2018-Feb-13 23:31N 38°19' W 027°03'612.3
2018-Feb-13 23:00N 38°22' W 026°57'612.2
2018-Feb-13 22:30N 38°25' W 026°50'612.5
2018-Feb-13 22:00N 38°29' W 026°43'612.4
2018-Feb-13 21:30N 38°32' W 026°37'612.4
2018-Feb-13 21:00N 38°35' W 026°30'712.7
2018-Feb-13 20:29N 38°39' W 026°23'712.7
2018-Feb-13 19:56N 38°43' W 026°15'  
2018-Feb-09 16:00N 49°54' W 004°60'613.0
2018-Feb-09 15:30N 50°00' W 004°60'7 3.3
2018-Feb-09 13:30N 50°07' W 005°03'0 0.0
2018-Feb-09 10:30N 50°07' W 005°03'0 0.1
2018-Feb-09 10:00N 50°07' W 005°03'0 0.0
2018-Feb-09 08:00N 50°07' W 005°03'0 0.1
2018-Feb-09 07:30N 50°07' W 005°03'0 0.0
2018-Feb-09 06:30N 50°07' W 005°03'0 0.0
2018-Feb-09 05:30N 50°07' W 005°03'0 0.0
2018-Feb-09 04:00N 50°07' W 005°03'0 0.0
2018-Feb-09 03:30N 50°07' W 005°03'0 0.0
2018-Feb-09 03:00N 50°07' W 005°03'0 0.2
2018-Feb-09 02:00N 50°07' W 005°02'0 0.2
2018-Feb-09 01:30N 50°07' W 005°03'0 0.0
2018-Feb-09 01:00N 50°07' W 005°03'0 0.5
2018-Feb-09 00:30N 50°07' W 005°03'1 1.2
2018-Feb-09 00:00N 50°06' W 005°02'6 5.7
2018-Feb-08 23:00N 50°01' W 004°58'4 8.1
2018-Feb-08 22:30N 49°57' W 004°58'7 7.4
2018-Feb-08 21:30N 49°50' W 005°02'24112.0
2018-Feb-08 01:30N 51°34' W 010°45'  

Dump ship's entire track history